This is the latest recevied weather packets stored in our database for station/object KI5RAB. If no packets are shown the sender has not sent any weather packets the latest 1 day(s).
| Time | Temp. | Humidity | Pressure | Rain* | Wind** | Luminosity | Snow |
|---|---|---|---|---|---|---|---|
| 1778025557 | 30.56° C | 69% | 1008.5 hPa | 0 mm | 0 m/s | 70 W/m² | - |
| 1778025255 | 30.56° C | 69% | 1008.6 hPa | 0 mm | 0 m/s | 64 W/m² | - |
| 1778024952 | 30° C | 69% | 1008.8 hPa | 0 mm | 0.45 m/s, 307° | 71 W/m² | - |
| 1778024649 | 30° C | 69% | 1008.7 hPa | 0 mm | 0.45 m/s, 300° | 100 W/m² | - |
| 1778024346 | 30° C | 68% | 1008.7 hPa | 0 mm | 0.45 m/s, 328° | 122 W/m² | - |
| 1778024044 | 30.56° C | 69% | 1008.6 hPa | 0 mm | 0 m/s | 114 W/m² | - |
| 1778023741 | 30.56° C | 68% | 1008.6 hPa | 0 mm | 0.45 m/s, 319° | 124 W/m² | - |
| 1778023439 | 30.56° C | 68% | 1008.6 hPa | 0 mm | 0.45 m/s, 16° | 166 W/m² | - |
| 1778023135 | 30.56° C | 67% | 1008.5 hPa | 0 mm | 0.89 m/s, 276° | 133 W/m² | - |
| 1778022833 | 30.56° C | 66% | 1008.5 hPa | 0 mm | 0.45 m/s, 327° | 128 W/m² | - |
| 1778022531 | 31.11° C | 65% | 1008.5 hPa | 0 mm | 0 m/s | 132 W/m² | - |
| 1778022228 | 31.67° C | 64% | 1008.5 hPa | 0 mm | 0.45 m/s, 319° | 248 W/m² | - |
| 1778021924 | 32.22° C | 63% | 1008.7 hPa | 0 mm | 0.45 m/s, 357° | 295 W/m² | - |
| 1778021622 | 31.67° C | 62% | 1008.6 hPa | 0 mm | 0 m/s | 299 W/m² | - |
| 1778021316 | 32.22° C | 64% | 1008.6 hPa | 0 mm | 0 m/s | 244 W/m² | - |
| 1778021015 | 31.67° C | 63% | 1008.8 hPa | 0 mm | 0.45 m/s, 302° | 226 W/m² | - |
| 1778020712 | 31.11° C | 67% | 1008.8 hPa | 0 mm | 0 m/s | 331 W/m² | - |
| 1778020409 | 30.56° C | 67% | 1008.6 hPa | 0 mm | 0.45 m/s, 302° | 350 W/m² | - |
| 1778020104 | 30.56° C | 67% | 1008.6 hPa | 0 mm | 0 m/s | 218 W/m² | - |
| 1778019800 | 30° C | 68% | 1008.7 hPa | 0 mm | 0.45 m/s, 36° | 282 W/m² | - |
| 1778019498 | 30° C | 71% | 1008.6 hPa | 0 mm | 0 m/s | 276 W/m² | - |
| 1778019194 | 29.44° C | 70% | 1008.6 hPa | 0 mm | 0 m/s | 158 W/m² | - |
| 1778018892 | 29.44° C | 70% | 1008.9 hPa | 0 mm | 0.45 m/s, 320° | 138 W/m² | - |
| 1778018589 | 30° C | 70% | 1008.8 hPa | 0 mm | 0.45 m/s, 318° | 133 W/m² | - |
| 1778018287 | 30° C | 69% | 1008.9 hPa | 0 mm | 0 m/s | 176 W/m² | - |
* Rain latest hour (hover to see other rain measurements)
** Current wind speed in m/s (hover to see current wind gust speed)